Nearby METAR Reports


NZAA - Auckland Intl Ar, New Zealand
Distance from station: NW 162km
Updated: 22/02/2018 14:00
Few Clouds
Few Clouds
 Wind from W
Wind: W 31 km/h
Temperature: 22°C
Dew Point: 15°C
Humidity: 65%
Barometer: 1007 hPa
Clouds: Few Clouds
Visibility: 10 km
Cloud details: Few Clouds 1280 m
2018/02/22 01:00 NZAA 220100Z AUTO 26017KT 9999 FEW042/// 22/15 Q1007 TEMPO 6000 SHRA
NZWN - Wellington Intl, New Zealand
Distance from station: SSW 357km
Updated: 22/02/2018 14:00
Mostly cloudy
Mostly cloudy
 Wind from S
Wind: S 35 km/h
Temperature: 17°C
Dew Point: 10°C
Humidity: 64%
Barometer: 1010 hPa
Clouds: Mostly cloudy
Visibility: 10 km
Cloud details: Mostly cloudy 853 m
Mostly cloudy 1067 m
Mostly cloudy 1402 m
2018/02/22 01:00 NZWN 220100Z AUTO 17019KT 9999 BKN028/// BKN035/// BKN046/// 17/10 Q1010 NOSIG
 
NZCH - Christchurch Int, New Zealand
Distance from station: SSW 647km
Updated: 22/02/2018 14:00
Mostly cloudy
Mostly cloudy
 Wind from S
Wind: S 22 km/h
Temperature: 16°C
Dew Point: 8°C
Humidity: 59%
Barometer: 1010 hPa
Clouds: Mostly cloudy
Visibility: 10 km
Cloud details: Mostly cloudy 1311 m
Mostly cloudy 1524 m
2018/02/22 01:00 NZCH 220100Z AUTO 19012KT 9999 BKN043/// BKN050/// 16/08 Q1010 NOSIG
YSNF - Norfolk Island A, Australia
Distance from station: NW 1258km
Updated: 22/02/2018 14:00
Mostly cloudy
Mostly cloudy
 Wind from SSE
Wind: SSE 22 km/h
Clouds: Mostly cloudy
Visibility: 10 km
Cloud details: Few Clouds 914 m
Mostly cloudy 1402 m
2018/02/22 01:00 YSNF 220100Z 16012KT 9999 FEW030 BKN046 24/// Q1015